createdAt,value
2018-06-29T00:00:15.753Z,21.20
2018-06-29T00:05:16.703Z,21.20
2018-06-29T00:07:47.813Z,21.10
2018-06-29T00:10:24.019Z,21.10
2018-06-29T00:12:55.261Z,21.10
2018-06-29T00:15:25.895Z,20.90
2018-06-29T00:17:56.631Z,20.90
2018-06-29T00:20:27.383Z,20.80
2018-06-29T00:22:58.113Z,20.80
2018-06-29T00:25:28.773Z,20.80
2018-06-29T00:27:59.562Z,20.80
2018-06-29T00:33:01.061Z,20.90
2018-06-29T00:35:31.516Z,20.90
2018-06-29T00:38:02.092Z,20.90
2018-06-29T00:43:02.656Z,20.90
2018-06-29T00:45:33.245Z,20.90
2018-06-29T00:48:03.860Z,20.90
2018-06-29T00:50:34.388Z,20.90
2018-06-29T00:53:05.086Z,20.80
2018-06-29T00:55:35.498Z,20.80
2018-06-29T00:58:06.434Z,20.80
2018-06-29T01:00:37.306Z,20.70
2018-06-29T01:03:08.068Z,20.70
2018-06-29T01:05:38.638Z,20.70
2018-06-29T01:08:09.476Z,20.70
2018-06-29T01:13:11.029Z,20.80
2018-06-29T01:15:41.559Z,20.90
2018-06-29T01:18:12.151Z,20.90
2018-06-29T01:20:42.956Z,21.00
2018-06-29T01:23:13.387Z,21.10
2018-06-29T01:25:43.958Z,21.10
2018-06-29T01:28:14.896Z,21.20
2018-06-29T01:30:45.463Z,21.30
2018-06-29T01:33:16.055Z,21.30
2018-06-29T01:35:46.599Z,21.30
2018-06-29T01:38:17.264Z,21.30
2018-06-29T01:40:47.993Z,21.40
2018-06-29T01:43:18.483Z,21.40
2018-06-29T01:45:49.154Z,21.50
2018-06-29T01:48:19.734Z,21.50
2018-06-29T01:50:50.379Z,21.50
2018-06-29T01:55:51.843Z,21.50
2018-06-29T01:58:22.498Z,21.50
2018-06-29T02:00:53.269Z,21.60
2018-06-29T02:03:23.987Z,21.60
2018-06-29T02:05:54.720Z,21.60
2018-06-29T02:08:25.525Z,21.60
2018-06-29T02:10:56.370Z,21.60
2018-06-29T02:13:27.189Z,21.60
2018-06-29T02:15:57.752Z,21.60
2018-06-29T02:18:28.927Z,21.60
2018-06-29T02:20:59.639Z,21.60
2018-06-29T02:26:00.380Z,21.50
2018-06-29T02:28:31.201Z,21.50
2018-06-29T02:31:01.897Z,21.50
2018-06-29T02:33:32.445Z,21.50
2018-06-29T02:36:03.215Z,21.50
2018-06-29T02:43:34.281Z,21.50
2018-06-29T02:46:05.014Z,21.50
2018-06-29T02:48:35.576Z,21.50
2018-06-29T02:51:06.258Z,21.50
2018-06-29T02:53:37.065Z,21.40
2018-06-29T02:56:08.775Z,21.30
2018-06-29T03:01:09.683Z,21.20
2018-06-29T03:03:40.350Z,21.20
2018-06-29T03:06:10.992Z,21.20
2018-06-29T03:08:41.813Z,21.20
2018-06-29T03:11:12.303Z,21.10
2018-06-29T03:13:42.978Z,21.10
2018-06-29T03:16:13.760Z,21.20
2018-06-29T03:18:44.344Z,21.20
2018-06-29T03:21:15.329Z,21.20
2018-06-29T03:23:45.878Z,21.20
2018-06-29T03:26:16.546Z,21.30
2018-06-29T03:28:47.069Z,21.30
2018-06-29T03:33:48.048Z,21.20
2018-06-29T03:38:48.576Z,21.30
2018-06-29T03:41:19.454Z,21.30
2018-06-29T03:43:50.014Z,21.30
2018-06-29T03:46:20.677Z,21.20
2018-06-29T03:48:51.227Z,21.30
2018-06-29T03:51:21.943Z,21.30
2018-06-29T03:53:52.565Z,21.20
2018-06-29T03:58:53.175Z,21.30
2018-06-29T04:01:23.762Z,21.30
2018-06-29T04:03:54.365Z,21.30
2018-06-29T04:06:24.933Z,21.40
2018-06-29T04:08:55.586Z,21.40
2018-06-29T04:11:26.045Z,21.40
2018-06-29T04:13:56.701Z,21.40
2018-06-29T04:16:27.251Z,21.40
2018-06-29T04:21:28.364Z,21.40
2018-06-29T04:23:59.084Z,21.50
2018-06-29T04:26:30.010Z,21.50
2018-06-29T04:29:00.649Z,21.50
2018-06-29T04:31:31.265Z,21.60
2018-06-29T04:36:31.975Z,21.60
2018-06-29T04:39:02.471Z,21.50
2018-06-29T04:41:33.086Z,21.50
2018-06-29T04:44:03.766Z,21.50
2018-06-29T04:46:34.682Z,21.50
2018-06-29T04:49:05.261Z,21.50
2018-06-29T04:51:37.005Z,21.50
2018-06-29T04:54:08.347Z,21.60
2018-06-29T04:59:09.228Z,21.70
2018-06-29T05:01:39.998Z,21.70
2018-06-29T05:04:10.473Z,21.70
2018-06-29T05:09:11.330Z,21.70
2018-06-29T05:11:42.669Z,21.70
2018-06-29T05:14:13.354Z,21.60
2018-06-29T05:16:44.262Z,21.70
2018-06-29T05:19:14.933Z,21.80
2018-06-29T05:21:45.511Z,21.90
2018-06-29T05:24:16.151Z,22.00
2018-06-29T05:26:46.859Z,22.00
2018-06-29T05:29:17.515Z,22.20
2018-06-29T05:34:18.552Z,22.30
2018-06-29T05:36:49.029Z,22.30
2018-06-29T05:39:19.784Z,22.20
2018-06-29T05:41:50.336Z,22.30
2018-06-29T05:44:21.102Z,22.50
2018-06-29T05:46:51.886Z,22.70
2018-06-29T05:49:23.288Z,22.80
2018-06-29T05:54:24.019Z,23.20
2018-06-29T05:56:55.257Z,23.60
2018-06-29T05:59:26.011Z,23.90
2018-06-29T06:04:26.976Z,23.90
2018-06-29T06:06:57.623Z,24.60
2018-06-29T06:09:28.258Z,25.50
2018-06-29T06:11:59.258Z,25.40
2018-06-29T06:14:30.067Z,25.00
2018-06-29T06:17:00.712Z,25.10
2018-06-29T06:19:48.145Z,25.30
2018-06-29T06:22:18.888Z,26.20
2018-06-29T06:24:49.431Z,27.00
2018-06-29T06:27:19.876Z,27.70
2018-06-29T06:29:50.701Z,27.90
2018-06-29T06:32:21.243Z,28.30
2018-06-29T06:34:52.603Z,30.00
2018-06-29T06:37:23.299Z,32.00
2018-06-29T06:39:53.937Z,33.80
2018-06-29T06:42:24.577Z,34.70
2018-06-29T06:47:25.382Z,36.50
2018-06-29T06:49:56.128Z,37.40
2018-06-29T06:52:26.623Z,37.00
2018-06-29T06:54:57.098Z,36.90
2018-06-29T06:57:27.738Z,38.30
2018-06-29T06:59:58.362Z,39.80
2018-06-29T07:02:28.918Z,39.70
2018-06-29T07:04:59.608Z,39.40
2018-06-29T07:07:30.160Z,40.00
2018-06-29T07:10:01.196Z,40.20
2018-06-29T07:12:31.955Z,40.00
2018-06-29T07:15:02.540Z,40.20
2018-06-29T07:17:33.237Z,39.60
2018-06-29T07:20:04.850Z,39.80
2018-06-29T07:22:35.885Z,39.90
2018-06-29T07:25:06.654Z,39.60
2018-06-29T07:27:37.284Z,40.60
2018-06-29T07:30:09.005Z,40.70
2018-06-29T07:32:39.680Z,41.30
2018-06-29T07:35:10.226Z,41.00
2018-06-29T07:37:40.918Z,40.80
2018-06-29T07:40:11.666Z,41.00
2018-06-29T07:42:43.116Z,41.20
2018-06-29T07:45:13.637Z,41.00
2018-06-29T07:47:44.348Z,41.20
2018-06-29T07:52:45.365Z,41.80
2018-06-29T07:55:16.077Z,42.60
2018-06-29T07:57:46.775Z,42.70
2018-06-29T08:00:17.531Z,41.80
2018-06-29T08:02:48.117Z,41.70
2018-06-29T08:05:18.700Z,41.90
2018-06-29T08:07:49.734Z,40.70
2018-06-29T08:10:20.569Z,41.10
2018-06-29T08:12:51.145Z,41.30
2018-06-29T08:15:21.758Z,42.10
2018-06-29T08:17:52.590Z,42.40
2018-06-29T08:20:23.320Z,42.80
2018-06-29T08:22:53.965Z,42.70
2018-06-29T08:25:25.080Z,42.80
2018-06-29T08:27:55.712Z,42.30
2018-06-29T08:30:26.619Z,42.30
2018-06-29T08:32:57.314Z,41.90
2018-06-29T08:35:28.031Z,40.50
2018-06-29T08:37:59.144Z,39.50
2018-06-29T08:40:29.804Z,39.20
2018-06-29T08:43:00.645Z,39.50
2018-06-29T08:45:31.186Z,40.50
2018-06-29T08:48:01.795Z,40.80
2018-06-29T08:50:32.525Z,41.40
2018-06-29T08:53:03.119Z,40.20
2018-06-29T08:55:33.870Z,39.00
2018-06-29T08:58:04.792Z,38.80
2018-06-29T09:00:35.355Z,39.60
2018-06-29T09:03:06.096Z,40.20
2018-06-29T09:05:36.876Z,41.10
2018-06-29T09:08:08.176Z,41.30
2018-06-29T09:10:39.218Z,41.10
2018-06-29T09:13:09.761Z,41.00
2018-06-29T09:15:41.320Z,41.70
2018-06-29T09:18:12.005Z,41.40
2018-06-29T09:20:42.834Z,41.00
2018-06-29T09:23:13.330Z,40.50
2018-06-29T09:25:45.119Z,39.70
2018-06-29T09:28:15.645Z,39.20
2018-06-29T09:30:46.573Z,38.50
2018-06-29T09:33:17.073Z,38.60
2018-06-29T09:35:48.101Z,38.50
2018-06-29T09:38:18.836Z,39.80
2018-06-29T09:40:49.535Z,40.40
2018-06-29T09:43:21.100Z,39.90
2018-06-29T09:45:51.666Z,40.20
2018-06-29T09:48:22.499Z,41.10
2018-06-29T09:50:53.120Z,41.20
2018-06-29T09:53:23.967Z,43.10
2018-06-29T09:55:54.696Z,43.40
2018-06-29T09:58:25.591Z,42.40
2018-06-29T10:00:56.269Z,41.60
2018-06-29T10:03:26.883Z,39.90
2018-06-29T10:05:57.592Z,39.10
2018-06-29T10:08:28.295Z,39.30
2018-06-29T10:10:58.866Z,37.90
2018-06-29T10:13:29.536Z,36.50
2018-06-29T10:16:00.337Z,36.10
2018-06-29T10:18:31.089Z,35.20
2018-06-29T10:21:01.757Z,34.70
2018-06-29T10:23:32.356Z,34.60
2018-06-29T10:26:03.180Z,34.10
2018-06-29T10:28:34.366Z,33.80
2018-06-29T10:31:05.266Z,34.90
2018-06-29T10:33:36.366Z,36.40
2018-06-29T10:36:07.290Z,38.00
2018-06-29T10:38:38.298Z,39.30
2018-06-29T10:43:40.297Z,39.50
2018-06-29T10:46:11.116Z,40.00
2018-06-29T10:48:43.814Z,39.50
2018-06-29T10:51:14.329Z,40.60
2018-06-29T10:53:44.796Z,40.90
2018-06-29T10:56:15.274Z,40.90
2018-06-29T10:58:45.851Z,39.40
2018-06-29T11:01:16.282Z,38.40
2018-06-29T11:03:47.781Z,38.30
2018-06-29T11:06:18.378Z,38.00
2018-06-29T11:08:49.917Z,38.00
2018-06-29T11:11:20.444Z,38.50
2018-06-29T11:13:50.998Z,38.00
2018-06-29T11:16:21.638Z,37.30
2018-06-29T11:18:52.441Z,36.10
2018-06-29T11:21:23.426Z,35.60
2018-06-29T11:23:54.545Z,35.30
2018-06-29T11:26:26.163Z,34.80
2018-06-29T11:28:57.704Z,34.20
2018-06-29T11:31:28.292Z,34.00
2018-06-29T11:33:58.958Z,33.70
2018-06-29T11:36:29.771Z,33.50
2018-06-29T11:39:00.462Z,33.30
2018-06-29T11:41:31.200Z,33.20
2018-06-29T11:44:01.811Z,32.80
2018-06-29T11:46:33.401Z,32.40
2018-06-29T11:49:04.291Z,31.80
2018-06-29T11:51:34.984Z,31.30
2018-06-29T11:54:05.792Z,31.10
2018-06-29T11:56:36.688Z,30.90
2018-06-29T11:59:07.717Z,31.30
2018-06-29T12:01:38.859Z,31.70
2018-06-29T12:04:09.314Z,32.00
2018-06-29T12:06:39.917Z,32.40
2018-06-29T12:09:12.086Z,32.60
2018-06-29T12:11:43.445Z,32.70
2018-06-29T12:14:14.108Z,32.60
2018-06-29T12:16:45.128Z,32.60
2018-06-29T12:19:15.767Z,32.50
2018-06-29T12:21:46.473Z,32.50
2018-06-29T12:24:17.430Z,32.70
2018-06-29T12:26:48.547Z,32.90
2018-06-29T12:29:25.677Z,33.00
2018-06-29T12:31:56.645Z,32.80
2018-06-29T12:34:27.312Z,32.60
2018-06-29T12:36:58.070Z,32.40
2018-06-29T12:39:28.709Z,32.50
2018-06-29T12:41:59.850Z,32.50
2018-06-29T12:44:30.566Z,32.60
2018-06-29T12:47:01.285Z,32.50
2018-06-29T12:49:31.936Z,32.20
2018-06-29T12:52:02.559Z,32.30
2018-06-29T12:54:33.334Z,32.30
2018-06-29T12:57:04.009Z,32.40
2018-06-29T12:59:34.693Z,32.30
2018-06-29T13:02:06.448Z,32.20
2018-06-29T13:04:37.110Z,32.40
2018-06-29T13:07:07.869Z,32.50
2018-06-29T13:09:38.610Z,32.50
2018-06-29T13:12:09.090Z,32.30
2018-06-29T13:14:39.759Z,32.30
2018-06-29T13:17:11.512Z,32.30
2018-06-29T13:19:42.059Z,32.30
2018-06-29T13:22:13.048Z,32.40
2018-06-29T13:24:43.749Z,32.40
2018-06-29T13:27:14.399Z,32.60
2018-06-29T13:29:45.155Z,32.40
2018-06-29T13:32:15.615Z,32.40
2018-06-29T13:34:46.382Z,31.90
2018-06-29T13:37:17.013Z,31.90
2018-06-29T13:39:47.616Z,31.90
2018-06-29T13:42:18.858Z,32.00
2018-06-29T13:44:49.621Z,32.20
2018-06-29T13:47:20.926Z,32.20
2018-06-29T13:49:51.847Z,32.40
2018-06-29T13:52:22.664Z,32.60
2018-06-29T13:54:53.494Z,32.40
2018-06-29T13:57:23.926Z,32.20
2018-06-29T13:59:55.712Z,32.30
2018-06-29T14:02:26.715Z,32.20
2018-06-29T14:04:57.650Z,32.10
2018-06-29T14:07:28.418Z,32.20
2018-06-29T14:09:59.214Z,32.40
2018-06-29T14:12:29.718Z,32.60
2018-06-29T14:15:00.425Z,32.60
2018-06-29T14:17:34.726Z,32.60
2018-06-29T14:20:06.219Z,32.60
2018-06-29T14:22:37.210Z,32.50
2018-06-29T14:25:07.854Z,32.40
2018-06-29T14:27:39.443Z,32.50
2018-06-29T14:30:10.113Z,32.60
2018-06-29T14:32:40.854Z,32.50
2018-06-29T14:35:11.722Z,32.40
2018-06-29T14:37:42.478Z,32.20
2018-06-29T14:40:12.984Z,32.20
2018-06-29T14:42:43.591Z,31.90
2018-06-29T14:45:14.760Z,32.10
2018-06-29T14:47:45.481Z,32.20
2018-06-29T14:50:16.146Z,32.30
2018-06-29T14:52:46.989Z,32.00
2018-06-29T14:55:17.668Z,32.00
2018-06-29T14:57:48.264Z,32.10
2018-06-29T15:00:18.759Z,31.90
2018-06-29T15:02:49.367Z,31.90
2018-06-29T15:05:20.109Z,32.10
2018-06-29T15:07:50.696Z,32.00
2018-06-29T15:10:21.535Z,31.90
2018-06-29T15:12:52.237Z,31.90
2018-06-29T15:15:22.901Z,31.90
2018-06-29T15:17:53.640Z,32.00
2018-06-29T15:20:24.428Z,32.10
2018-06-29T15:22:55.165Z,32.20
2018-06-29T15:25:25.736Z,32.20
2018-06-29T15:27:56.148Z,32.30
2018-06-29T15:30:27.024Z,32.30
2018-06-29T15:32:57.523Z,32.30
2018-06-29T15:35:28.218Z,32.40
2018-06-29T15:37:58.905Z,32.50
2018-06-29T15:40:30.069Z,32.50
2018-06-29T15:43:00.876Z,32.60
2018-06-29T15:48:01.756Z,32.60
2018-06-29T15:50:32.746Z,32.50
2018-06-29T15:53:03.396Z,32.40
2018-06-29T15:55:34.065Z,32.60
2018-06-29T15:58:05.386Z,32.70
2018-06-29T16:00:40.635Z,32.60
2018-06-29T16:03:11.401Z,32.40
2018-06-29T16:05:42.028Z,32.40
2018-06-29T16:08:12.635Z,32.50
2018-06-29T16:10:44.952Z,32.40
2018-06-29T16:13:15.737Z,32.40
2018-06-29T16:15:46.407Z,32.30
2018-06-29T16:18:17.241Z,32.20
2018-06-29T16:20:47.770Z,32.10
2018-06-29T16:23:18.356Z,32.10
2018-06-29T16:25:49.014Z,32.20
2018-06-29T16:28:19.737Z,32.00
2018-06-29T16:30:56.918Z,32.00
2018-06-29T16:33:27.589Z,31.90
2018-06-29T16:35:58.531Z,32.00
2018-06-29T16:38:29.085Z,31.90
2018-06-29T16:40:59.876Z,31.60
2018-06-29T16:43:30.517Z,31.50
2018-06-29T16:46:01.508Z,31.50
2018-06-29T16:48:33.271Z,31.60
2018-06-29T16:51:04.003Z,31.50
2018-06-29T16:56:04.975Z,31.70
2018-06-29T16:58:35.663Z,31.60
2018-06-29T17:01:06.489Z,31.50
2018-06-29T17:03:37.392Z,31.20
2018-06-29T17:06:08.147Z,31.10
2018-06-29T17:08:38.752Z,30.90
2018-06-29T17:11:10.215Z,30.90
2018-06-29T17:13:40.959Z,30.80
2018-06-29T17:16:11.423Z,30.90
2018-06-29T17:18:42.382Z,30.80
2018-06-29T17:21:12.989Z,30.60
2018-06-29T17:23:43.815Z,30.60
2018-06-29T17:26:14.477Z,30.60
2018-06-29T17:28:45.294Z,30.60
2018-06-29T17:31:16.361Z,30.50
2018-06-29T17:33:47.168Z,30.50
2018-06-29T17:36:17.525Z,30.50
2018-06-29T17:38:48.409Z,30.30
2018-06-29T17:41:19.132Z,30.20
2018-06-29T17:43:50.835Z,30.20
2018-06-29T17:46:21.700Z,29.80
2018-06-29T17:48:52.381Z,29.60
2018-06-29T17:51:23.960Z,29.40
2018-06-29T17:53:54.904Z,29.20
2018-06-29T17:56:25.630Z,29.00
2018-06-29T17:58:56.364Z,28.80
2018-06-29T18:01:27.109Z,28.70
2018-06-29T18:06:28.034Z,28.30
2018-06-29T18:08:59.197Z,28.10
2018-06-29T18:11:29.954Z,27.90
2018-06-29T18:14:00.739Z,27.30
2018-06-29T18:16:31.831Z,27.10
2018-06-29T18:19:03.659Z,26.80
2018-06-29T18:21:34.318Z,26.70
2018-06-29T18:24:05.049Z,26.40
2018-06-29T18:29:07.132Z,26.10
2018-06-29T18:34:08.316Z,26.00
2018-06-29T18:36:39.115Z,26.00
2018-06-29T18:39:11.067Z,25.90
2018-06-29T18:41:41.670Z,25.80
2018-06-29T18:44:12.685Z,25.70
2018-06-29T18:46:43.337Z,25.70
2018-06-29T18:49:13.991Z,25.60
2018-06-29T18:51:44.555Z,25.60
2018-06-29T18:54:15.197Z,25.40
2018-06-29T18:56:46.304Z,25.30
2018-06-29T18:59:16.972Z,25.30
2018-06-29T19:01:47.587Z,25.20
2018-06-29T19:04:18.231Z,25.00
2018-06-29T19:06:49.187Z,24.90
2018-06-29T19:09:19.967Z,24.70
2018-06-29T19:11:50.672Z,24.60
2018-06-29T19:14:21.318Z,24.50
2018-06-29T19:16:52.263Z,24.40
2018-06-29T19:19:22.875Z,24.30
2018-06-29T19:21:53.623Z,24.20
2018-06-29T19:24:24.404Z,24.10
2018-06-29T19:26:55.250Z,24.00
2018-06-29T19:29:25.916Z,23.90
2018-06-29T19:31:56.626Z,23.80
2018-06-29T19:34:27.552Z,23.80
2018-06-29T19:36:58.354Z,23.70
2018-06-29T19:39:28.954Z,23.60
2018-06-29T19:41:59.542Z,23.50
2018-06-29T19:44:30.615Z,23.50
2018-06-29T19:47:02.013Z,23.40
2018-06-29T19:49:32.651Z,23.40
2018-06-29T19:52:03.378Z,23.30
2018-06-29T19:54:34.068Z,23.20
2018-06-29T19:57:04.628Z,23.20
2018-06-29T19:59:35.181Z,23.10
2018-06-29T20:02:06.789Z,23.10
2018-06-29T20:04:37.702Z,23.00
2018-06-29T20:07:08.641Z,22.90
2018-06-29T20:09:39.424Z,22.80
2018-06-29T20:12:10.225Z,22.70
2018-06-29T20:14:41.038Z,22.60
2018-06-29T20:17:11.777Z,22.50
2018-06-29T20:22:12.965Z,22.30
2018-06-29T20:24:43.892Z,22.30
2018-06-29T20:27:14.744Z,22.20
2018-06-29T20:29:45.619Z,22.10
2018-06-29T20:32:16.313Z,22.10
2018-06-29T20:34:47.171Z,22.00
2018-06-29T20:37:17.835Z,22.00
2018-06-29T20:39:48.488Z,21.90
2018-06-29T20:44:49.916Z,21.80
2018-06-29T20:47:21.801Z,21.80
2018-06-29T20:49:52.465Z,21.80
2018-06-29T20:52:23.214Z,21.70
2018-06-29T20:54:54.329Z,21.70
2018-06-29T20:57:25.995Z,21.70
2018-06-29T21:02:26.846Z,21.60
2018-06-29T21:04:57.772Z,21.50
2018-06-29T21:07:28.306Z,21.40
2018-06-29T21:09:59.028Z,21.40
2018-06-29T21:12:29.856Z,21.40
2018-06-29T21:15:00.835Z,21.30
2018-06-29T21:17:31.701Z,21.30
2018-06-29T21:20:02.771Z,21.20
2018-06-29T21:22:34.252Z,21.20
2018-06-29T21:25:05.055Z,21.20
2018-06-29T21:27:35.732Z,21.10
2018-06-29T21:30:07.715Z,21.10
2018-06-29T21:32:38.569Z,21.10
2018-06-29T21:35:09.197Z,21.10
2018-06-29T21:37:40.050Z,21.00
2018-06-29T21:40:10.731Z,21.00
2018-06-29T21:42:41.671Z,20.90
2018-06-29T21:45:12.247Z,20.90
2018-06-29T21:50:14.239Z,20.90
2018-06-29T21:52:44.959Z,20.90
2018-06-29T21:55:15.564Z,20.80
2018-06-29T21:57:46.471Z,20.80
2018-06-29T22:00:18.172Z,20.80
2018-06-29T22:02:48.768Z,20.80
2018-06-29T22:07:50.011Z,20.70
2018-06-29T22:10:20.770Z,20.70
2018-06-29T22:12:51.392Z,20.70
2018-06-29T22:15:24.276Z,20.80
2018-06-29T22:17:55.832Z,20.80
2018-06-29T22:20:26.633Z,20.90
2018-06-29T22:25:27.306Z,20.90
2018-06-29T22:30:28.703Z,20.90
2018-06-29T22:32:59.419Z,21.10
2018-06-29T22:35:30.451Z,21.10
2018-06-29T22:38:01.381Z,21.10
2018-06-29T22:40:32.043Z,21.10
2018-06-29T22:43:02.747Z,21.10
2018-06-29T22:45:33.408Z,21.20
2018-06-29T22:48:04.921Z,21.20
2018-06-29T22:50:35.625Z,21.20
2018-06-29T22:53:06.480Z,21.20
2018-06-29T22:55:37.461Z,21.10
2018-06-29T22:58:08.048Z,21.10
2018-06-29T23:00:38.853Z,21.10
2018-06-29T23:03:11.983Z,21.00
2018-06-29T23:05:42.708Z,20.90
2018-06-29T23:08:13.376Z,20.80
2018-06-29T23:10:45.336Z,20.80
2018-06-29T23:13:16.148Z,20.80
2018-06-29T23:15:47.001Z,20.80
2018-06-29T23:18:16.474Z,20.70
2018-06-29T23:20:46.817Z,20.70
2018-06-29T23:25:47.653Z,20.70
2018-06-29T23:28:18.302Z,20.70
2018-06-29T23:30:49.580Z,20.80
2018-06-29T23:33:20.147Z,20.80
2018-06-29T23:35:50.902Z,20.90
2018-06-29T23:38:21.440Z,20.80
2018-06-29T23:40:52.071Z,20.80
2018-06-29T23:43:22.614Z,20.70
2018-06-29T23:45:53.266Z,20.70
2018-06-29T23:48:23.852Z,20.70
2018-06-29T23:50:54.645Z,20.80
2018-06-29T23:53:25.272Z,20.70
2018-06-29T23:55:55.933Z,20.70
2018-06-29T23:58:27.947Z,20.70
